createdAt,value
2022-07-30T00:01:18.560Z,13.23
2022-07-30T00:03:45.642Z,7.80
2022-07-30T00:06:12.815Z,8.93
2022-07-30T00:08:39.844Z,17.67
2022-07-30T00:11:07.060Z,9.98
2022-07-30T00:13:34.089Z,6.70
2022-07-30T00:16:01.612Z,9.60
2022-07-30T00:18:28.699Z,14.32
2022-07-30T00:20:56.407Z,14.93
2022-07-30T00:23:23.555Z,13.95
2022-07-30T00:25:50.679Z,9.23
2022-07-30T00:28:17.696Z,10.00
2022-07-30T00:30:44.915Z,8.77
2022-07-30T00:33:12.046Z,13.82
2022-07-30T00:35:39.918Z,9.15
2022-07-30T00:38:07.107Z,12.27
2022-07-30T00:40:34.349Z,7.55
2022-07-30T00:43:04.386Z,11.38
2022-07-30T00:45:31.567Z,15.50
2022-07-30T00:48:01.594Z,9.88
2022-07-30T00:50:28.701Z,23.67
2022-07-30T00:52:55.795Z,15.35
2022-07-30T00:55:22.951Z,14.30
2022-07-30T00:57:50.025Z,15.20
2022-07-30T01:00:18.727Z,16.67
2022-07-30T01:02:46.096Z,14.20
2022-07-30T01:05:13.571Z,10.50
2022-07-30T01:07:41.041Z,13.32
2022-07-30T01:10:10.425Z,7.40
2022-07-30T01:12:38.352Z,8.57
2022-07-30T01:15:08.229Z,10.18
2022-07-30T01:17:36.927Z,9.15
2022-07-30T01:20:08.509Z,12.27
2022-07-30T01:22:46.445Z,12.52
2022-07-30T01:25:32.193Z,8.68
2022-07-30T01:30:34.803Z,14.95
2022-07-30T01:33:04.789Z,8.80
2022-07-30T01:35:33.738Z,13.45
2022-07-30T01:38:04.234Z,12.23
2022-07-30T01:40:32.736Z,11.02
2022-07-30T01:43:03.232Z,15.00
2022-07-30T01:45:41.382Z,10.07
2022-07-30T01:48:12.364Z,9.38
2022-07-30T01:50:45.273Z,6.80
2022-07-30T01:53:21.059Z,4.45
2022-07-30T01:55:49.285Z,8.98
2022-07-30T01:58:21.145Z,11.15
2022-07-30T02:00:56.066Z,11.85
2022-07-30T02:03:24.061Z,6.10
2022-07-30T02:06:18.034Z,3.90
2022-07-30T02:08:52.936Z,5.32
2022-07-30T02:11:40.203Z,4.50
2022-07-30T02:14:28.760Z,6.60
2022-07-30T02:16:58.751Z,4.95
2022-07-30T02:19:34.322Z,7.05
2022-07-30T02:22:08.480Z,6.18
2022-07-30T02:24:38.057Z,11.73
2022-07-30T02:27:13.229Z,8.70
2022-07-30T02:29:43.198Z,5.65
2022-07-30T02:32:17.845Z,11.27
2022-07-30T02:34:48.376Z,9.23
2022-07-30T02:37:18.396Z,8.60
2022-07-30T02:40:06.573Z,7.47
2022-07-30T02:42:33.892Z,8.02
2022-07-30T02:45:03.613Z,8.85
2022-07-30T02:47:32.287Z,10.88
2022-07-30T02:50:06.437Z,8.52
2022-07-30T02:52:35.091Z,11.13
2022-07-30T02:55:04.531Z,6.47
2022-07-30T02:57:33.162Z,13.30
2022-07-30T03:00:01.656Z,13.57
2022-07-30T03:02:31.523Z,7.53
2022-07-30T03:05:01.389Z,17.98
2022-07-30T03:07:29.917Z,7.03
2022-07-30T03:09:58.147Z,16.90
2022-07-30T03:12:30.365Z,12.40
2022-07-30T03:14:58.271Z,7.30
2022-07-30T03:17:28.595Z,20.70
2022-07-30T03:19:57.134Z,8.00
2022-07-30T03:22:28.942Z,10.00
2022-07-30T03:25:02.710Z,11.82
2022-07-30T03:27:31.037Z,13.35
2022-07-30T03:30:02.421Z,13.05
2022-07-30T03:32:31.040Z,11.35
2022-07-30T03:35:06.156Z,8.85
2022-07-30T03:37:37.085Z,11.18
2022-07-30T03:40:06.294Z,9.40
2022-07-30T03:42:35.761Z,16.52
2022-07-30T03:45:08.245Z,13.45
2022-07-30T03:47:42.285Z,7.78
2022-07-30T03:50:12.661Z,13.63
2022-07-30T03:52:41.786Z,7.90
2022-07-30T03:55:13.295Z,12.48
2022-07-30T03:57:46.271Z,11.18
2022-07-30T04:00:15.263Z,10.60
2022-07-30T04:02:47.838Z,11.75
2022-07-30T04:05:41.140Z,11.02
2022-07-30T04:08:11.538Z,9.73
2022-07-30T04:10:39.573Z,14.13
2022-07-30T04:13:12.346Z,13.13
2022-07-30T04:16:39.447Z,12.55
2022-07-30T04:19:15.885Z,9.38
2022-07-30T04:21:44.755Z,16.63
2022-07-30T04:24:13.053Z,11.55
2022-07-30T04:26:40.775Z,9.77
2022-07-30T04:29:13.481Z,11.02
2022-07-30T04:31:43.891Z,8.90
2022-07-30T04:34:29.954Z,11.90
2022-07-30T04:36:57.677Z,7.75
2022-07-30T04:39:25.412Z,5.45
2022-07-30T04:41:52.501Z,8.30
2022-07-30T04:44:28.928Z,4.55
2022-07-30T04:47:16.981Z,6.63
2022-07-30T04:49:57.597Z,5.70
2022-07-30T04:52:25.244Z,4.55
2022-07-30T04:55:02.731Z,5.82
2022-07-30T04:57:31.798Z,5.32
2022-07-30T04:59:59.077Z,7.53
2022-07-30T05:02:30.027Z,8.13
2022-07-30T05:04:59.445Z,4.22
2022-07-30T05:07:27.888Z,7.22
2022-07-30T05:09:55.191Z,3.75
2022-07-30T05:12:22.233Z,7.35
2022-07-30T05:14:49.484Z,5.70
2022-07-30T05:17:17.717Z,6.32
2022-07-30T05:19:44.795Z,8.65
2022-07-30T05:22:15.946Z,7.82
2022-07-30T05:24:44.517Z,5.20
2022-07-30T05:27:11.627Z,6.90
2022-07-30T05:29:38.741Z,6.47
2022-07-30T05:32:19.773Z,8.35
2022-07-30T05:34:49.873Z,6.28
2022-07-30T05:37:17.729Z,8.07
2022-07-30T05:40:02.173Z,8.15
2022-07-30T05:43:02.492Z,8.13
2022-07-30T05:45:30.116Z,7.47
2022-07-30T05:47:57.701Z,5.43
2022-07-30T05:50:25.365Z,5.70
2022-07-30T05:52:52.412Z,5.50
2022-07-30T05:55:39.808Z,10.05
2022-07-30T05:58:18.570Z,8.07
2022-07-30T06:00:46.186Z,4.05
2022-07-30T06:03:14.191Z,5.07
2022-07-30T06:06:05.478Z,6.20
2022-07-30T06:08:32.834Z,5.57
2022-07-30T06:11:00.232Z,9.18
2022-07-30T06:13:28.025Z,8.45
2022-07-30T06:15:55.388Z,8.43
2022-07-30T06:18:23.201Z,8.45
2022-07-30T06:20:54.501Z,10.50
2022-07-30T06:23:41.866Z,6.35
2022-07-30T06:26:44.389Z,8.43
2022-07-30T06:29:13.412Z,6.40
2022-07-30T06:31:41.704Z,6.80
2022-07-30T06:34:11.878Z,3.45
2022-07-30T06:36:42.704Z,6.47
2022-07-30T06:39:53.742Z,7.53
2022-07-30T06:42:29.049Z,6.05
2022-07-30T06:45:16.167Z,9.20
2022-07-30T06:50:33.485Z,6.63
2022-07-30T06:53:00.793Z,6.68
2022-07-30T06:55:39.081Z,11.27
2022-07-30T06:58:06.554Z,11.63
2022-07-30T07:00:52.686Z,10.82
2022-07-30T07:03:22.335Z,18.98
2022-07-30T07:05:49.867Z,8.75
2022-07-30T07:08:18.671Z,8.85
2022-07-30T07:10:50.978Z,12.75
2022-07-30T07:13:27.437Z,12.70
2022-07-30T07:15:55.517Z,7.07
2022-07-30T07:18:25.775Z,9.85
2022-07-30T07:21:03.381Z,8.00
2022-07-30T07:23:39.776Z,7.47
2022-07-30T07:26:17.489Z,8.18
2022-07-30T07:28:45.373Z,8.43
2022-07-30T07:32:07.155Z,28.00
2022-07-30T07:34:00.460Z,7.13
2022-07-30T07:36:27.650Z,6.57
2022-07-30T07:38:55.165Z,7.97
2022-07-30T07:41:23.078Z,6.57
2022-07-30T07:43:50.546Z,11.30
2022-07-30T07:46:33.584Z,7.18
2022-07-30T07:49:03.288Z,8.20
2022-07-30T07:51:48.119Z,10.32
2022-07-30T07:54:22.029Z,11.75
2022-07-30T07:56:52.740Z,10.23
2022-07-30T07:59:27.726Z,8.07
2022-07-30T08:02:04.642Z,8.70
2022-07-30T08:04:58.941Z,6.20
2022-07-30T08:07:42.820Z,8.75
2022-07-30T08:10:11.317Z,5.90
2022-07-30T08:13:02.647Z,5.97
2022-07-30T08:15:48.978Z,8.23
2022-07-30T08:18:16.098Z,6.30
2022-07-30T08:20:53.912Z,10.70
2022-07-30T08:23:25.960Z,9.00
2022-07-30T08:25:53.515Z,7.35
2022-07-30T08:28:36.101Z,8.65
2022-07-30T08:31:05.288Z,7.68
2022-07-30T08:33:32.513Z,10.25
2022-07-30T08:36:04.198Z,14.20
2022-07-30T08:38:36.630Z,12.75
2022-07-30T08:41:03.829Z,12.77
2022-07-30T08:43:31.634Z,10.90
2022-07-30T08:46:02.918Z,11.77
2022-07-30T08:48:53.337Z,12.43
2022-07-30T08:51:23.003Z,12.57
2022-07-30T08:54:09.158Z,9.05
2022-07-30T08:56:37.428Z,13.70
2022-07-30T08:59:06.852Z,12.77
2022-07-30T09:01:34.019Z,12.05
2022-07-30T09:04:01.244Z,8.57
2022-07-30T09:06:29.121Z,10.45
2022-07-30T09:08:56.723Z,6.55
2022-07-30T09:11:23.901Z,7.30
2022-07-30T09:13:51.774Z,4.88
2022-07-30T09:16:24.781Z,3.47
2022-07-30T09:18:54.857Z,6.43
2022-07-30T09:21:29.401Z,2.63
2022-07-30T09:24:13.545Z,5.55
2022-07-30T09:26:59.401Z,4.22
2022-07-30T09:29:57.535Z,2.33
2022-07-30T09:32:54.490Z,3.55
2022-07-30T09:35:30.634Z,2.72
2022-07-30T09:38:10.686Z,3.03
2022-07-30T09:40:58.265Z,3.80
2022-07-30T09:43:46.438Z,3.85
2022-07-30T09:46:22.583Z,6.55
2022-07-30T09:48:50.934Z,6.63
2022-07-30T09:51:23.824Z,8.35
2022-07-30T09:54:07.665Z,2.85
2022-07-30T09:56:37.162Z,8.20
2022-07-30T09:59:07.250Z,6.03
2022-07-30T10:02:00.845Z,6.60
2022-07-30T10:04:47.231Z,4.72
2022-07-30T10:07:25.371Z,3.17
2022-07-30T10:09:54.383Z,7.53
2022-07-30T10:12:24.251Z,4.88
2022-07-30T10:14:55.025Z,7.03
2022-07-30T10:17:22.906Z,2.78
2022-07-30T10:20:09.417Z,1.65
2022-07-30T10:22:55.694Z,0.88
2022-07-30T10:25:57.341Z,2.20
2022-07-30T10:28:51.135Z,1.40
2022-07-30T10:31:47.484Z,5.65
2022-07-30T10:34:08.061Z,2.13
2022-07-30T10:36:36.223Z,1.85
2022-07-30T10:39:05.487Z,2.40
2022-07-30T10:41:57.432Z,2.17
2022-07-30T10:44:35.528Z,1.42
2022-07-30T10:47:09.381Z,4.18
2022-07-30T10:49:41.106Z,6.67
2022-07-30T10:52:14.310Z,3.25
2022-07-30T10:54:47.557Z,8.65
2022-07-30T10:57:31.814Z,5.72
2022-07-30T11:00:03.824Z,3.97
2022-07-30T11:02:35.684Z,2.92
2022-07-30T11:05:18.730Z,4.03
2022-07-30T11:08:42.979Z,2.47
2022-07-30T11:12:01.071Z,5.40
2022-07-30T11:14:11.038Z,3.85
2022-07-30T11:16:39.766Z,6.78
2022-07-30T11:19:56.793Z,2.85
2022-07-30T11:22:51.115Z,5.20
2022-07-30T11:25:50.375Z,2.08
2022-07-30T11:28:41.087Z,3.40
2022-07-30T11:31:36.883Z,6.05
2022-07-30T11:34:20.464Z,5.80
2022-07-30T11:37:18.410Z,6.40
2022-07-30T11:39:56.589Z,7.97
2022-07-30T11:42:32.600Z,3.92
2022-07-30T11:45:18.391Z,5.20
2022-07-30T11:47:57.411Z,3.30
2022-07-30T11:50:27.496Z,4.97
2022-07-30T11:53:09.169Z,1.05
2022-07-30T11:55:45.282Z,0.50
2022-07-30T11:58:37.350Z,0.30
2022-07-30T12:01:15.180Z,0.28
2022-07-30T12:03:44.345Z,0.20
2022-07-30T12:06:20.023Z,0.30
2022-07-30T12:08:51.975Z,0.50
2022-07-30T12:11:21.371Z,0.52
2022-07-30T12:14:02.689Z,0.45
2022-07-30T12:16:33.590Z,0.40
2022-07-30T12:19:09.695Z,0.30
2022-07-30T12:21:39.881Z,0.93
2022-07-30T12:24:14.751Z,0.68
2022-07-30T12:26:42.289Z,0.35
2022-07-30T12:29:14.430Z,0.50
2022-07-30T12:31:42.597Z,0.30
2022-07-30T12:34:27.377Z,0.10
2022-07-30T12:36:55.570Z,0.32
2022-07-30T12:39:25.580Z,0.20
2022-07-30T12:41:56.262Z,0.98
2022-07-30T12:44:41.858Z,0.20
2022-07-30T12:47:26.818Z,0.20
2022-07-30T12:49:55.938Z,0.45
2022-07-30T12:52:29.049Z,0.32
2022-07-30T12:55:05.275Z,0.20
2022-07-30T12:57:52.259Z,0.22
2022-07-30T13:00:19.901Z,0.30
2022-07-30T13:02:47.683Z,0.57
2022-07-30T13:05:15.085Z,0.10
2022-07-30T13:07:55.321Z,0.40
2022-07-30T13:10:24.209Z,0.30
2022-07-30T13:12:54.592Z,2.45
2022-07-30T13:15:22.734Z,1.08
2022-07-30T13:17:50.237Z,1.20
2022-07-30T13:20:17.993Z,1.33
2022-07-30T13:22:45.942Z,1.05
2022-07-30T13:25:13.757Z,1.23
2022-07-30T13:27:41.223Z,1.13
2022-07-30T13:30:10.481Z,4.03
2022-07-30T13:32:37.765Z,1.13
2022-07-30T13:35:05.367Z,1.75
2022-07-30T13:37:37.560Z,2.25
2022-07-30T13:40:06.679Z,0.90
2022-07-30T13:42:33.967Z,1.60
2022-07-30T13:45:01.126Z,2.95
2022-07-30T13:47:29.122Z,1.77
2022-07-30T13:49:56.545Z,0.95
2022-07-30T13:52:23.570Z,2.40
2022-07-30T13:54:53.775Z,1.73
2022-07-30T13:57:20.958Z,2.25
2022-07-30T13:59:48.275Z,1.10
2022-07-30T14:02:16.216Z,0.75
2022-07-30T14:04:43.496Z,0.50
2022-07-30T14:07:10.636Z,0.95
2022-07-30T14:09:44.903Z,1.45
2022-07-30T14:12:15.675Z,2.42
2022-07-30T14:14:43.147Z,2.28
2022-07-30T14:17:14.565Z,0.60
2022-07-30T14:19:47.436Z,2.35
2022-07-30T14:22:14.996Z,1.83
2022-07-30T14:24:42.068Z,0.90
2022-07-30T14:27:11.052Z,1.23
2022-07-30T14:29:38.376Z,1.40
2022-07-30T14:32:06.572Z,4.63
2022-07-30T14:34:33.898Z,2.05
2022-07-30T14:37:04.845Z,1.67
2022-07-30T14:39:37.415Z,2.15
2022-07-30T14:42:06.426Z,0.82
2022-07-30T14:44:35.409Z,0.80
2022-07-30T14:47:04.293Z,0.57
2022-07-30T14:49:32.146Z,0.95
2022-07-30T14:52:02.203Z,0.90
2022-07-30T14:54:31.727Z,1.27
2022-07-30T14:57:01.067Z,1.90
2022-07-30T14:59:30.873Z,0.70
2022-07-30T15:01:58.073Z,1.25
2022-07-30T15:04:25.791Z,4.57
2022-07-30T15:06:53.060Z,1.95
2022-07-30T15:09:20.449Z,2.05
2022-07-30T15:12:09.396Z,0.80
2022-07-30T15:14:35.100Z,1.73
2022-07-30T15:17:04.497Z,0.82
2022-07-30T15:19:32.821Z,0.60
2022-07-30T15:22:02.893Z,0.70
2022-07-30T15:24:31.636Z,0.57
2022-07-30T15:26:59.168Z,0.93
2022-07-30T15:29:29.377Z,2.33
2022-07-30T15:31:57.277Z,1.63
2022-07-30T15:34:24.534Z,0.68
2022-07-30T15:36:51.719Z,0.47
2022-07-30T15:39:18.816Z,2.13
2022-07-30T15:41:45.981Z,0.63
2022-07-30T15:44:13.972Z,0.70
2022-07-30T15:46:41.037Z,3.22
2022-07-30T15:49:08.331Z,2.95
2022-07-30T15:51:36.033Z,6.85
2022-07-30T15:54:03.220Z,1.27
2022-07-30T15:56:34.453Z,2.35
2022-07-30T15:59:01.619Z,1.85
2022-07-30T16:01:28.722Z,1.63
2022-07-30T16:03:55.815Z,2.35
2022-07-30T16:06:22.876Z,2.08
2022-07-30T16:08:50.034Z,0.90
2022-07-30T16:11:17.066Z,2.97
2022-07-30T16:13:44.179Z,2.13
2022-07-30T16:16:11.356Z,1.73
2022-07-30T16:18:38.473Z,2.47
2022-07-30T16:21:06.096Z,1.75
2022-07-30T16:23:36.572Z,5.32
2022-07-30T16:27:12.895Z,2.35
2022-07-30T16:29:40.290Z,6.20
2022-07-30T16:32:07.355Z,5.28
2022-07-30T16:34:34.621Z,3.53
2022-07-30T16:37:07.046Z,2.50
2022-07-30T16:39:36.723Z,4.63
2022-07-30T16:42:04.529Z,5.03
2022-07-30T16:44:35.935Z,5.00
2022-07-30T16:47:03.121Z,2.78
2022-07-30T16:49:33.113Z,3.78
2022-07-30T16:52:01.980Z,1.83
2022-07-30T16:54:31.674Z,2.40
2022-07-30T16:56:59.027Z,0.90
2022-07-30T16:59:29.256Z,5.28
2022-07-30T17:01:56.729Z,4.88
2022-07-30T17:04:23.945Z,1.30
2022-07-30T17:06:51.746Z,2.67
2022-07-30T17:09:18.967Z,2.90
2022-07-30T17:11:52.371Z,4.65
2022-07-30T17:14:22.360Z,0.70
2022-07-30T17:16:49.665Z,2.00
2022-07-30T17:19:16.932Z,3.08
2022-07-30T17:21:44.022Z,2.55
2022-07-30T17:24:11.983Z,2.08
2022-07-30T17:26:43.027Z,1.25
2022-07-30T17:29:15.291Z,1.88
2022-07-30T17:31:44.655Z,4.28
2022-07-30T17:34:14.105Z,1.55
2022-07-30T17:36:44.274Z,2.22
2022-07-30T17:40:24.758Z,1.58
2022-07-30T17:42:06.287Z,2.53
2022-07-30T17:44:33.615Z,0.75
2022-07-30T17:47:00.813Z,1.88
2022-07-30T17:49:30.586Z,4.70
2022-07-30T17:51:58.244Z,3.92
2022-07-30T17:54:25.602Z,2.58
2022-07-30T17:56:52.932Z,3.35
2022-07-30T17:59:20.098Z,3.08
2022-07-30T18:01:47.303Z,1.65
2022-07-30T18:04:14.745Z,2.45
2022-07-30T18:06:41.877Z,2.65
2022-07-30T18:09:08.987Z,2.22
2022-07-30T18:11:36.534Z,1.75
2022-07-30T18:14:03.998Z,2.95
2022-07-30T18:16:31.091Z,0.80
2022-07-30T18:18:58.135Z,1.83
2022-07-30T18:21:25.544Z,1.30
2022-07-30T18:23:52.566Z,2.05
2022-07-30T18:26:19.693Z,0.80
2022-07-30T18:28:48.830Z,2.13
2022-07-30T18:31:16.129Z,1.80
2022-07-30T18:33:44.302Z,0.98
2022-07-30T18:36:11.884Z,1.92
2022-07-30T18:38:39.264Z,0.85
2022-07-30T18:41:06.473Z,1.80
2022-07-30T18:43:47.767Z,0.75
2022-07-30T18:46:15.858Z,1.65
2022-07-30T18:48:43.232Z,1.92
2022-07-30T18:51:13.867Z,1.10
2022-07-30T18:53:42.220Z,3.03
2022-07-30T18:56:09.499Z,0.45
2022-07-30T18:58:38.461Z,0.30
2022-07-30T19:01:05.610Z,0.30
2022-07-30T19:03:32.809Z,0.52
2022-07-30T19:06:00.120Z,0.40
2022-07-30T19:08:27.744Z,0.93
2022-07-30T19:10:54.921Z,6.53
2022-07-30T19:13:24.259Z,2.58
2022-07-30T19:15:51.431Z,4.28
2022-07-30T19:18:18.577Z,7.60
2022-07-30T19:20:46.282Z,4.05
2022-07-30T19:23:15.250Z,3.28
2022-07-30T19:25:42.349Z,3.90
2022-07-30T19:28:11.314Z,8.10
2022-07-30T19:30:43.742Z,7.78
2022-07-30T19:33:15.514Z,2.20
2022-07-30T19:35:43.933Z,2.63
2022-07-30T19:38:14.273Z,5.40
2022-07-30T19:40:49.499Z,2.10
2022-07-30T19:43:16.664Z,3.92
2022-07-30T19:45:46.669Z,7.22
2022-07-30T19:48:29.203Z,4.63
2022-07-30T19:50:59.422Z,10.95
2022-07-30T19:53:31.160Z,7.07
2022-07-30T19:56:03.313Z,3.70
2022-07-30T19:58:31.269Z,5.88
2022-07-30T20:01:00.194Z,2.58
2022-07-30T20:03:29.402Z,2.22
2022-07-30T20:06:00.276Z,2.92
2022-07-30T20:08:30.505Z,4.63
2022-07-30T20:10:59.387Z,3.97
2022-07-30T20:13:43.969Z,2.65
2022-07-30T20:16:17.091Z,2.38
2022-07-30T20:18:46.125Z,1.58
2022-07-30T20:24:02.875Z,0.75
2022-07-30T20:26:30.158Z,1.02
2022-07-30T20:28:57.788Z,3.88
2022-07-30T20:31:26.357Z,2.28
2022-07-30T20:33:53.527Z,1.75
2022-07-30T20:36:22.403Z,2.00
2022-07-30T20:38:49.823Z,2.17
2022-07-30T20:41:17.156Z,1.67
2022-07-30T20:43:45.856Z,2.50
2022-07-30T20:46:20.685Z,1.67
2022-07-30T20:48:51.851Z,6.32
2022-07-30T20:51:19.254Z,2.58
2022-07-30T20:53:47.291Z,1.48
2022-07-30T20:56:19.310Z,3.20
2022-07-30T20:58:48.352Z,2.38
2022-07-30T21:01:17.596Z,4.22
2022-07-30T21:03:47.701Z,4.45
2022-07-30T21:06:15.540Z,2.88
2022-07-30T21:08:42.586Z,3.53
2022-07-30T21:11:09.924Z,4.60
2022-07-30T21:13:38.501Z,3.13
2022-07-30T21:16:15.430Z,4.45
2022-07-30T21:18:50.217Z,3.08
2022-07-30T21:21:30.695Z,5.15
2022-07-30T21:24:11.657Z,3.58
2022-07-30T21:26:40.616Z,4.22
2022-07-30T21:29:08.550Z,5.05
2022-07-30T21:32:01.201Z,2.35
2022-07-30T21:34:25.935Z,3.33
2022-07-30T21:36:54.446Z,2.45
2022-07-30T21:39:28.804Z,3.88
2022-07-30T21:41:57.061Z,3.38
2022-07-30T21:44:24.452Z,4.00
2022-07-30T21:46:52.650Z,2.47
2022-07-30T21:49:20.894Z,3.50
2022-07-30T21:51:48.706Z,3.10
2022-07-30T21:54:28.559Z,9.93
2022-07-30T21:56:58.095Z,4.30
2022-07-30T21:59:27.608Z,7.97
2022-07-30T22:01:55.661Z,5.82
2022-07-30T22:04:23.037Z,4.47
2022-07-30T22:06:51.523Z,4.28
2022-07-30T22:09:33.208Z,3.92
2022-07-30T22:12:09.277Z,3.92
2022-07-30T22:14:39.963Z,2.17
2022-07-30T22:17:22.649Z,3.88
2022-07-30T22:19:50.852Z,5.15
2022-07-30T22:22:27.712Z,4.80
2022-07-30T22:24:57.298Z,5.15
2022-07-30T22:27:28.028Z,5.13
2022-07-30T22:30:09.257Z,6.30
2022-07-30T22:32:36.817Z,4.72
2022-07-30T22:35:07.278Z,6.88
2022-07-30T22:37:34.403Z,6.28
2022-07-30T22:40:01.826Z,5.28
2022-07-30T22:42:28.967Z,2.35
2022-07-30T22:44:57.588Z,2.45
2022-07-30T22:47:50.644Z,5.97
2022-07-30T22:50:11.944Z,2.95
2022-07-30T22:52:49.056Z,1.92
2022-07-30T22:55:24.486Z,2.00
2022-07-30T22:57:51.909Z,4.45
2022-07-30T23:00:28.009Z,2.75
2022-07-30T23:02:56.982Z,1.65
2022-07-30T23:05:25.174Z,5.50
2022-07-30T23:07:52.677Z,4.05
2022-07-30T23:10:20.777Z,3.13
2022-07-30T23:12:19.012Z,2.85
2022-07-30T23:12:51.918Z,4.50
2022-07-30T23:15:20.055Z,2.28
2022-07-30T23:17:47.828Z,1.83
2022-07-30T23:20:18.540Z,4.00
2022-07-30T23:22:45.882Z,2.42
2022-07-30T23:25:13.551Z,4.05
2022-07-30T23:27:41.348Z,2.13
2022-07-30T23:30:10.303Z,3.83
2022-07-30T23:32:38.213Z,8.10
2022-07-30T23:35:06.891Z,3.05
2022-07-30T23:37:47.525Z,3.63
2022-07-30T23:40:16.678Z,2.35
2022-07-30T23:42:43.826Z,6.55
2022-07-30T23:45:11.254Z,4.25
2022-07-30T23:48:01.220Z,3.30
2022-07-30T23:50:26.000Z,1.33
2022-07-30T23:52:53.088Z,1.80
2022-07-30T23:55:20.416Z,2.85
2022-07-30T23:57:47.494Z,1.27
